Time;durP1;ratioP1;P1;durP2;ratioP2;P2;SDS_P1;SDS_P2;PMS_P1;PMS_P2;Temp;Humidity;BMP_temperature;BMP_pressure;BME280_temperature;BME280_humidity;BME280_pressure;Samples;Min_cycle;Max_cycle;Signal;HPM_P1;HPM_P2
2022/01/20 00:01:59;;;;;;;85.85;56.72;;;1.10;81.80;;;;;;5038252;28;20425;-77
2022/01/20 00:04:44;;;;;;;90.53;58.35;;;1.00;81.70;;;;;;5069681;28;20421;-75
2022/01/20 00:07:28;;;;;;;94.30;60.17;;;0.70;82.80;;;;;;5011905;28;20425;-76
2022/01/20 00:26:27;;;;;;;101.67;65.83;;;0.40;85.40;;;;;;5063776;28;20441;-76
2022/01/20 00:28:59;;;;;;;105.70;67.97;;;0.40;85.10;;;;;;5046303;28;20413;-75
2022/01/20 00:34:29;;;;;;;104.70;66.30;;;0.30;85.90;;;;;;5058812;28;20396;-80
2022/01/20 00:37:16;;;;;;;109.70;68.82;;;0.30;85.90;;;;;;5042832;28;20735;-80
2022/01/20 00:39:44;;;;;;;116.30;72.75;;;0.30;86.40;;;;;;5051281;28;20411;-75
2022/01/20 00:42:11;;;;;;;101.63;65.03;;;0.00;86.90;;;;;;5063847;28;20395;-76
2022/01/20 00:44:38;;;;;;;100.93;64.87;;;0.00;87.10;;;;;;5025442;28;20997;-78
2022/01/20 00:47:05;;;;;;;98.40;62.47;;;0.00;86.60;;;;;;5041795;28;20774;-76
2022/01/20 00:49:33;;;;;;;101.03;62.22;;;0.00;86.40;;;;;;5038361;28;20474;-74
2022/01/20 00:52:00;;;;;;;94.38;60.80;;;0.00;86.10;;;;;;5028153;28;21860;-75
2022/01/20 00:54:27;;;;;;;104.63;68.32;;;0.10;85.80;;;;;;5059156;28;20756;-75
2022/01/20 00:56:54;;;;;;;105.60;65.33;;;0.10;86.90;;;;;;5042775;28;20417;-75
2022/01/20 00:59:21;;;;;;;105.78;64.65;;;0.10;86.80;;;;;;5057007;28;20465;-74
2022/01/20 01:01:48;;;;;;;102.35;63.80;;;0.10;86.50;;;;;;5053143;28;20962;-80
2022/01/20 01:04:15;;;;;;;95.57;60.42;;;0.10;86.40;;;;;;5054331;28;20970;-78
2022/01/20 01:09:09;;;;;;;98.13;61.63;;;0.20;86.50;;;;;;5057317;28;20462;-75
2022/01/20 01:11:37;;;;;;;95.40;60.53;;;0.20;86.20;;;;;;5050518;28;20416;-78
2022/01/20 01:14:05;;;;;;;98.35;60.33;;;0.20;86.10;;;;;;5024881;28;20418;-80
2022/01/20 01:24:42;;;;;;;112.82;69.28;;;0.00;87.20;;;;;;5051809;28;20915;-77
2022/01/20 01:27:11;;;;;;;113.78;69.40;;;-0.10;87.90;;;;;;5064417;28;22450;-80
2022/01/20 01:32:09;;;;;;;99.60;61.17;;;-0.30;88.70;;;;;;5050928;28;20416;-76
2022/01/20 01:34:40;;;;;;;98.18;60.10;;;-0.20;89.50;;;;;;5050902;28;20480;-75
2022/01/20 01:37:24;;;;;;;107.22;64.65;;;-0.20;88.70;;;;;;5070978;28;20411;-79
2022/01/20 01:39:51;;;;;;;98.03;61.25;;;-0.10;89.10;;;;;;5034572;28;20412;-79
2022/01/20 01:42:44;;;;;;;96.75;60.08;;;-0.10;88.50;;;;;;5062102;28;20452;-75
2022/01/20 01:45:17;;;;;;;100.22;61.83;;;-0.10;88.20;;;;;;5055833;28;20856;-77
2022/01/20 01:47:45;;;;;;;100.20;61.10;;;-0.10;88.10;;;;;;5036866;28;20876;-75
2022/01/20 01:50:13;;;;;;;99.25;61.45;;;-0.10;87.70;;;;;;5036907;28;20439;-75
2022/01/20 01:52:41;;;;;;;97.90;61.40;;;-0.10;87.70;;;;;;5048610;28;20415;-80
2022/01/20 01:55:08;;;;;;;98.77;61.17;;;-0.10;87.60;;;;;;5050008;28;20492;-76
2022/01/20 01:57:36;;;;;;;104.68;64.38;;;-0.10;88.00;;;;;;5053720;28;20417;-74
2022/01/20 02:00:08;;;;;;;101.05;62.00;;;-0.20;88.10;;;;;;5034904;28;20452;-73
2022/01/20 02:02:36;;;;;;;103.00;62.60;;;-0.20;88.30;;;;;;5047338;28;20415;-75
2022/01/20 02:05:10;;;;;;;101.47;63.30;;;-0.20;88.70;;;;;;5060185;28;20407;-76
2022/01/20 02:18:46;;;;;;;107.00;64.90;;;-0.30;89.10;;;;;;5060981;28;20775;-76
2022/01/20 02:21:13;;;;;;;104.37;63.97;;;-0.30;89.80;;;;;;5048529;28;20420;-80
2022/01/20 02:23:41;;;;;;;99.60;62.58;;;-0.20;90.00;;;;;;5041067;28;20414;-75
2022/01/20 02:26:08;;;;;;;100.22;62.88;;;-0.10;89.40;;;;;;5036851;28;20410;-77
2022/01/20 02:28:36;;;;;;;100.85;62.30;;;-0.10;88.90;;;;;;5029045;28;20417;-75
2022/01/20 02:31:04;;;;;;;106.53;66.57;;;-0.20;88.70;;;;;;5039331;28;20902;-76
2022/01/20 02:33:32;;;;;;;95.72;60.05;;;-0.20;89.50;;;;;;5025319;28;20446;-75
2022/01/20 02:36:04;;;;;;;92.95;58.47;;;-0.30;89.20;;;;;;5028743;28;20421;-79
2022/01/20 02:46:37;;;;;;;98.40;61.70;;;-0.30;88.10;;;;;;5049141;28;20497;-75
2022/01/20 02:49:05;;;;;;;92.38;57.65;;;-0.40;89.70;;;;;;5048715;28;20983;-76
2022/01/20 02:51:31;;;;;;;99.00;60.63;;;-0.40;88.50;;;;;;5030782;28;20468;-76
2022/01/20 02:53:58;;;;;;;98.30;61.20;;;-0.50;88.50;;;;;;5033711;28;20810;-77
2022/01/20 02:56:26;;;;;;;96.45;58.50;;;-0.40;89.30;;;;;;5040174;28;20408;-79
2022/01/20 02:58:53;;;;;;;95.65;58.35;;;-0.40;88.60;;;;;;5039324;28;20410;-75
2022/01/20 03:01:20;;;;;;;97.22;59.40;;;-0.40;88.50;;;;;;5036202;28;20898;-75
2022/01/20 03:03:47;;;;;;;93.78;58.22;;;-0.40;88.60;;;;;;5029071;28;20405;-75
2022/01/20 03:06:14;;;;;;;100.65;61.22;;;-0.40;88.40;;;;;;5044207;28;20428;-79
2022/01/20 03:08:41;;;;;;;97.05;58.70;;;-0.50;88.10;;;;;;5026953;28;20432;-74
2022/01/20 03:11:08;;;;;;;94.75;59.70;;;-0.50;88.20;;;;;;5048514;28;20412;-79
2022/01/20 03:13:35;;;;;;;91.20;57.42;;;-0.60;87.90;;;;;;5044005;28;20474;-75
2022/01/20 03:16:02;;;;;;;90.78;57.38;;;-0.60;87.50;;;;;;5053246;28;20400;-75
2022/01/20 03:18:29;;;;;;;92.60;57.28;;;-0.80;85.80;;;;;;5043731;28;20425;-79
2022/01/20 03:20:56;;;;;;;90.35;55.78;;;-0.90;87.00;;;;;;5028046;28;20412;-79
2022/01/20 03:23:23;;;;;;;101.18;59.13;;;-0.90;86.40;;;;;;5014094;28;20419;-74
2022/01/20 03:25:50;;;;;;;99.30;57.95;;;-0.80;89.40;;;;;;5028834;28;20402;-79
2022/01/20 03:28:17;;;;;;;97.13;57.47;;;-0.80;89.90;;;;;;5041848;28;20418;-79
2022/01/20 03:30:44;;;;;;;91.10;56.03;;;-0.70;89.40;;;;;;5037730;28;21001;-77
2022/01/20 03:33:11;;;;;;;88.63;52.80;;;-0.70;90.00;;;;;;5040988;28;20409;-74
2022/01/20 03:35:40;;;;;;;87.17;52.90;;;-0.60;90.00;;;;;;5014276;28;20412;-75
2022/01/20 03:38:08;;;;;;;87.28;53.25;;;-0.60;89.60;;;;;;5030898;28;20411;-74
2022/01/20 03:40:35;;;;;;;89.18;55.35;;;-0.70;88.60;;;;;;5042310;28;20818;-75
2022/01/20 03:43:02;;;;;;;94.95;55.05;;;-0.80;88.00;;;;;;5037865;28;20429;-76
2022/01/20 03:45:29;;;;;;;91.95;56.42;;;-0.80;88.40;;;;;;5043317;28;20803;-75
2022/01/20 03:48:06;;;;;;;87.93;53.55;;;-1.00;87.10;;;;;;5025360;28;20885;-74
2022/01/20 03:53:20;;;;;;;82.85;51.90;;;-1.40;88.00;;;;;;5041226;28;20418;-79
2022/01/20 03:55:47;;;;;;;84.80;52.35;;;-1.50;87.40;;;;;;5031453;28;20452;-75
2022/01/20 03:58:15;;;;;;;87.70;53.37;;;-1.50;88.90;;;;;;5040420;28;20461;-79
2022/01/20 04:00:43;;;;;;;86.15;50.78;;;-1.50;88.60;;;;;;5033689;28;20492;-79
2022/01/20 04:03:13;;;;;;;90.57;54.13;;;-1.50;88.80;;;;;;5033054;28;20457;-75
2022/01/20 04:06:00;;;;;;;96.38;58.50;;;-1.50;89.90;;;;;;5026309;28;20818;-75
2022/01/20 04:08:34;;;;;;;98.30;60.63;;;-1.40;90.40;;;;;;5044882;28;20752;-79
2022/01/20 04:11:04;;;;;;;92.28;55.47;;;-1.50;90.40;;;;;;5021245;28;20400;-75
2022/01/20 04:13:32;;;;;;;88.70;55.28;;;-1.60;90.30;;;;;;5041306;28;20466;-74
2022/01/20 04:16:12;;;;;;;91.13;55.25;;;-1.50;90.10;;;;;;5039274;28;20398;-75
2022/01/20 04:18:59;;;;;;;94.65;55.67;;;-1.50;89.90;;;;;;5029116;28;20422;-79
2022/01/20 04:21:28;;;;;;;89.07;52.25;;;-1.50;89.50;;;;;;5030283;28;20493;-76
2022/01/20 04:23:57;;;;;;;93.20;53.15;;;-1.60;89.00;;;;;;5038882;28;20410;-81
2022/01/20 04:26:26;;;;;;;92.00;55.15;;;-1.60;88.90;;;;;;5028331;28;20416;-75
2022/01/20 04:28:55;;;;;;;83.18;52.30;;;-1.60;88.90;;;;;;5023669;28;20464;-80
2022/01/20 04:31:27;;;;;;;83.85;52.05;;;-1.60;88.70;;;;;;5032681;28;20426;-76
2022/01/20 04:33:56;;;;;;;89.25;53.65;;;-1.60;88.30;;;;;;5030995;28;20418;-76
2022/01/20 04:36:30;;;;;;;82.10;51.33;;;-1.60;89.10;;;;;;5031668;28;20480;-80
2022/01/20 04:38:59;;;;;;;89.90;53.13;;;-1.60;88.70;;;;;;5042329;28;21869;-77
2022/01/20 04:41:30;;;;;;;93.55;55.70;;;-1.60;89.90;;;;;;5028532;28;20942;-75
2022/01/20 04:43:59;;;;;;;86.47;52.80;;;-1.60;90.00;;;;;;5041063;28;20465;-76
2022/01/20 04:57:21;;;;;;;86.20;52.28;;;-1.70;88.10;;;;;;5030859;28;20416;-77
2022/01/20 04:59:50;;;;;;;91.35;53.63;;;-1.80;87.90;;;;;;5032006;28;20417;-76
2022/01/20 05:02:17;;;;;;;87.65;53.70;;;-1.90;87.40;;;;;;5030486;28;21047;-77
2022/01/20 05:04:44;;;;;;;91.07;55.65;;;-2.20;88.00;;;;;;5026295;28;20414;-80
2022/01/20 05:07:19;;;;;;;86.75;52.90;;;-2.30;88.60;;;;;;5039517;28;20466;-75
2022/01/20 05:09:47;;;;;;;83.90;50.97;;;-2.30;88.90;;;;;;5039458;28;20414;-75
2022/01/20 05:12:18;;;;;;;85.95;51.28;;;-2.30;89.10;;;;;;5033965;28;20410;-76
2022/01/20 05:14:45;;;;;;;86.57;52.63;;;-2.30;88.50;;;;;;5047426;28;20987;-77
2022/01/20 05:17:12;;;;;;;87.65;51.22;;;-2.20;88.20;;;;;;5041728;28;20408;-75
2022/01/20 05:19:39;;;;;;;89.70;53.97;;;-2.30;88.70;;;;;;5038872;28;20413;-76
2022/01/20 05:22:06;;;;;;;90.88;53.63;;;-2.30;88.60;;;;;;5059669;28;20927;-80
2022/01/20 05:24:33;;;;;;;87.88;51.58;;;-2.20;88.20;;;;;;5047842;28;21033;-75
2022/01/20 05:27:00;;;;;;;86.00;52.03;;;-2.20;88.10;;;;;;5070517;28;20411;-74
2022/01/20 05:29:27;;;;;;;82.57;50.63;;;-2.20;87.90;;;;;;5050394;28;20892;-80
2022/01/20 05:31:56;;;;;;;85.15;51.03;;;-2.20;88.10;;;;;;5024825;28;20633;-76
2022/01/20 05:34:22;;;;;;;90.07;52.38;;;-2.20;88.10;;;;;;5063391;28;20411;-75
2022/01/20 05:36:49;;;;;;;81.85;49.38;;;-2.20;88.00;;;;;;5057603;28;20421;-75
2022/01/20 05:39:17;;;;;;;87.57;53.38;;;-2.30;88.70;;;;;;5049579;28;20454;-75
2022/01/20 05:41:45;;;;;;;82.72;49.80;;;-2.30;87.70;;;;;;5028114;28;20929;-75
2022/01/20 05:44:12;;;;;;;82.15;48.97;;;-2.30;87.50;;;;;;5035807;28;20423;-79
2022/01/20 05:46:47;;;;;;;83.40;50.42;;;-2.30;87.50;;;;;;5028537;28;20884;-80
2022/01/20 05:49:20;;;;;;;90.68;54.05;;;-2.30;87.50;;;;;;5028521;28;20451;-76
2022/01/20 05:51:53;;;;;;;84.07;49.92;;;-2.30;87.30;;;;;;5032417;28;20431;-80
2022/01/20 05:54:21;;;;;;;87.85;52.97;;;-2.30;87.60;;;;;;5027723;28;20454;-76
2022/01/20 05:56:49;;;;;;;86.30;53.78;;;-2.30;89.40;;;;;;5033184;28;20468;-80
2022/01/20 05:59:16;;;;;;;85.28;51.63;;;-2.30;88.70;;;;;;5050686;28;20418;-78
2022/01/20 06:01:46;;;;;;;81.03;50.25;;;-2.40;88.40;;;;;;5056431;28;20408;-79
2022/01/20 06:04:13;;;;;;;80.67;49.07;;;-2.50;87.40;;;;;;5053117;28;20404;-78
2022/01/20 06:06:40;;;;;;;86.38;51.42;;;-2.50;87.30;;;;;;5031538;28;20417;-76
2022/01/20 06:09:08;;;;;;;90.00;50.43;;;-2.70;86.90;;;;;;5026654;28;20444;-76
2022/01/20 06:11:35;;;;;;;87.28;51.70;;;-2.90;87.60;;;;;;5053290;28;20412;-76
2022/01/20 06:14:03;;;;;;;80.28;48.72;;;-2.90;88.70;;;;;;5023423;28;20418;-79
2022/01/20 06:16:31;;;;;;;86.30;53.70;;;-2.90;88.40;;;;;;5033477;28;20489;-77
2022/01/20 06:18:58;;;;;;;88.82;51.90;;;-2.80;89.10;;;;;;5033956;28;20462;-76
2022/01/20 06:21:25;;;;;;;87.30;53.30;;;-2.80;90.10;;;;;;5027407;28;20411;-76
2022/01/20 06:23:52;;;;;;;84.35;49.83;;;-2.80;89.80;;;;;;5032934;28;20412;-76
2022/01/20 06:26:19;;;;;;;92.97;53.83;;;-2.70;89.80;;;;;;5061929;28;20407;-76
2022/01/20 06:28:46;;;;;;;89.78;53.78;;;-2.70;90.00;;;;;;5025806;28;20416;-80
2022/01/20 06:31:13;;;;;;;90.30;52.93;;;-2.60;89.60;;;;;;5030557;28;20813;-76
2022/01/20 06:33:40;;;;;;;88.35;51.95;;;-2.50;88.60;;;;;;5056259;28;20892;-76
2022/01/20 06:36:07;;;;;;;80.70;50.53;;;-2.60;89.30;;;;;;5029257;28;20414;-76
2022/01/20 06:38:34;;;;;;;86.40;51.10;;;-2.60;89.30;;;;;;5031932;28;20841;-76
2022/01/20 06:41:01;;;;;;;83.68;50.83;;;-2.70;89.00;;;;;;5029715;28;20464;-76
2022/01/20 06:43:28;;;;;;;100.47;57.83;;;-2.70;89.70;;;;;;5038962;28;20413;-75
2022/01/20 06:45:55;;;;;;;96.68;57.60;;;-2.60;91.10;;;;;;5062280;28;20411;-76
2022/01/20 06:48:22;;;;;;;94.00;57.92;;;-2.50;90.90;;;;;;5042843;28;20398;-76
2022/01/20 06:50:49;;;;;;;99.50;58.93;;;-2.50;90.70;;;;;;5045955;28;20431;-76
2022/01/20 06:53:16;;;;;;;115.55;66.63;;;-2.50;90.50;;;;;;5047014;28;20451;-76
2022/01/20 06:55:43;;;;;;;109.43;64.28;;;-2.50;90.50;;;;;;5038922;28;20422;-76
2022/01/20 06:58:10;;;;;;;95.88;58.15;;;-2.50;90.50;;;;;;5023878;28;20472;-76
2022/01/20 07:00:39;;;;;;;99.20;57.47;;;-2.60;89.40;;;;;;5032101;28;20896;-76
2022/01/20 07:03:06;;;;;;;90.30;53.80;;;-2.70;89.60;;;;;;5031646;28;20853;-79
2022/01/20 07:05:33;;;;;;;94.37;56.23;;;-2.80;88.40;;;;;;5047895;28;20408;-76
2022/01/20 07:08:00;;;;;;;101.43;59.95;;;-2.90;88.80;;;;;;5049374;28;20450;-76
2022/01/20 07:10:27;;;;;;;109.33;64.13;;;-2.90;89.80;;;;;;5029035;28;20427;-76
2022/01/20 07:12:54;;;;;;;105.60;62.15;;;-2.80;90.90;;;;;;5052697;28;20414;-76
2022/01/20 07:15:21;;;;;;;100.13;60.22;;;-2.80;91.00;;;;;;5043723;28;20403;-76
2022/01/20 07:17:49;;;;;;;98.40;57.67;;;-2.70;90.90;;;;;;5056512;28;20489;-76
2022/01/20 07:20:18;;;;;;;95.32;56.58;;;-2.70;90.60;;;;;;5068602;28;20468;-79
2022/01/20 07:22:47;;;;;;;101.50;61.35;;;-2.70;90.50;;;;;;5055070;28;20408;-76
2022/01/20 07:25:15;;;;;;;101.50;58.05;;;-2.70;90.50;;;;;;5049642;28;20474;-78
2022/01/20 07:27:42;;;;;;;97.40;58.13;;;-2.60;90.70;;;;;;5052242;28;20449;-75
2022/01/20 07:30:29;;;;;;;97.70;56.38;;;-2.70;90.70;;;;;;5026786;28;20495;-78
2022/01/20 07:32:57;;;;;;;87.50;51.88;;;-2.70;90.60;;;;;;5040451;28;20901;-78
2022/01/20 07:35:24;;;;;;;95.70;56.43;;;-2.60;90.50;;;;;;5068803;28;20447;-79
2022/01/20 07:37:51;;;;;;;90.95;53.95;;;-2.60;90.40;;;;;;5036630;28;20477;-79
2022/01/20 07:40:18;;;;;;;93.97;54.07;;;-2.60;91.00;;;;;;5028708;28;20417;-75
2022/01/20 07:42:44;;;;;;;84.90;50.53;;;-2.60;90.40;;;;;;5039793;28;20424;-76
2022/01/20 07:45:13;;;;;;;83.10;50.83;;;-2.60;90.70;;;;;;5034654;28;20415;-79
2022/01/20 07:47:40;;;;;;;91.75;53.80;;;-2.50;90.20;;;;;;5045317;28;20810;-76
2022/01/20 07:50:07;;;;;;;89.47;51.85;;;-2.50;90.50;;;;;;5059321;28;20423;-78
2022/01/20 07:52:34;;;;;;;88.72;52.53;;;-2.50;90.30;;;;;;5056098;28;20408;-76
2022/01/20 07:55:01;;;;;;;102.05;58.13;;;-2.30;90.50;;;;;;5051838;28;20406;-75
2022/01/20 07:57:28;;;;;;;87.22;52.78;;;-2.10;91.00;;;;;;5061016;28;20399;-76
2022/01/20 07:59:55;;;;;;;89.15;52.15;;;-2.00;91.00;;;;;;5036988;28;20426;-76
2022/01/20 08:02:22;;;;;;;89.25;53.85;;;-1.70;90.60;;;;;;5043183;28;20409;-76
2022/01/20 08:04:49;;;;;;;89.10;55.40;;;-1.50;90.20;;;;;;5036993;28;20837;-76
2022/01/20 08:07:18;;;;;;;88.43;52.60;;;-1.30;90.00;;;;;;5064465;28;20466;-76
2022/01/20 08:09:45;;;;;;;91.57;54.42;;;-1.10;89.70;;;;;;5065672;28;20449;-77
2022/01/20 08:12:20;;;;;;;86.60;53.42;;;-1.00;89.20;;;;;;5050274;28;20404;-76
2022/01/20 08:14:47;;;;;;;86.53;53.75;;;-0.80;88.70;;;;;;5064851;28;20415;-78
2022/01/20 08:17:14;;;;;;;83.80;51.03;;;-0.70;88.60;;;;;;5037518;28;20924;-76
2022/01/20 08:19:42;;;;;;;87.03;53.08;;;-0.50;88.30;;;;;;5035077;28;20421;-76
2022/01/20 08:22:09;;;;;;;84.43;51.72;;;-0.40;87.90;;;;;;5065317;28;20756;-76
2022/01/20 08:24:56;;;;;;;85.30;50.67;;;-0.20;87.70;;;;;;5039988;28;20432;-76
2022/01/20 08:27:23;;;;;;;92.47;55.17;;;0.00;87.50;;;;;;5054102;28;20406;-78
2022/01/20 08:29:50;;;;;;;106.15;64.90;;;0.20;87.20;;;;;;5058278;28;20449;-78
2022/01/20 08:32:17;;;;;;;98.10;56.80;;;0.40;86.60;;;;;;5039474;28;20408;-76
2022/01/20 08:34:44;;;;;;;85.30;52.78;;;0.50;86.10;;;;;;5031070;28;20437;-76
2022/01/20 08:37:11;;;;;;;136.27;81.25;;;0.60;87.10;;;;;;5030855;28;20903;-75
2022/01/20 08:39:47;;;;;;;137.15;79.82;;;0.90;85.70;;;;;;5034221;28;20927;-76
2022/01/20 08:42:14;;;;;;;97.70;60.03;;;1.00;85.40;;;;;;5050814;28;20416;-76
2022/01/20 08:44:42;;;;;;;100.68;64.00;;;1.10;84.80;;;;;;5051710;28;20411;-78
2022/01/20 08:47:15;;;;;;;111.63;75.82;;;1.20;84.40;;;;;;5030724;28;20422;-75
2022/01/20 08:49:48;;;;;;;92.55;60.35;;;1.40;84.20;;;;;;5054544;28;20416;-76
2022/01/20 08:52:16;;;;;;;91.28;59.38;;;1.60;83.60;;;;;;5040432;28;20414;-76
2022/01/20 08:54:45;;;;;;;92.90;56.78;;;1.70;83.10;;;;;;5031795;28;20413;-75
2022/01/20 08:57:16;;;;;;;93.28;57.40;;;1.90;82.20;;;;;;5021657;28;20399;-76
2022/01/20 08:59:43;;;;;;;83.93;53.65;;;2.00;82.30;;;;;;5031149;28;20429;-76
2022/01/20 09:02:10;;;;;;;85.30;53.50;;;2.10;82.40;;;;;;5044542;28;20407;-78
2022/01/20 09:04:38;;;;;;;79.43;51.88;;;2.20;82.00;;;;;;5018056;28;20449;-77
2022/01/20 09:07:06;;;;;;;87.07;55.70;;;2.30;81.70;;;;;;5033671;28;20413;-76
2022/01/20 09:09:40;;;;;;;83.20;52.03;;;2.40;81.70;;;;;;5051369;28;20896;-77
2022/01/20 09:17:32;;;;;;;80.97;52.73;;;2.40;81.60;;;;;;5052785;28;20424;-76
2022/01/20 09:19:59;;;;;;;82.57;54.47;;;2.60;81.80;;;;;;5040704;28;21018;-78
2022/01/20 09:22:29;;;;;;;80.53;53.67;;;2.60;81.30;;;;;;5053933;28;20493;-77
2022/01/20 09:24:56;;;;;;;84.57;55.17;;;2.70;81.80;;;;;;5024946;28;21060;-76
2022/01/20 09:27:23;;;;;;;88.47;57.65;;;2.80;81.80;;;;;;5050059;28;20397;-76
2022/01/20 09:29:52;;;;;;;78.27;53.07;;;2.90;81.50;;;;;;5041997;28;20419;-78
2022/01/20 09:32:21;;;;;;;84.22;55.35;;;3.00;80.60;;;;;;5049611;28;20423;-76
2022/01/20 09:34:48;;;;;;;80.60;54.42;;;3.00;80.60;;;;;;5055775;28;20734;-78
2022/01/20 09:37:15;;;;;;;85.55;57.70;;;3.20;80.60;;;;;;5062919;28;20836;-76
2022/01/20 09:39:42;;;;;;;80.63;54.35;;;3.40;80.10;;;;;;5032624;28;21036;-78
2022/01/20 09:42:10;;;;;;;82.68;55.20;;;3.50;79.60;;;;;;5039573;28;20905;-76
2022/01/20 09:44:45;;;;;;;81.35;54.85;;;3.70;78.30;;;;;;5048826;28;20458;-78
2022/01/20 09:47:16;;;;;;;85.93;59.38;;;3.70;78.00;;;;;;5031461;28;20504;-77
2022/01/20 09:49:44;;;;;;;81.67;55.17;;;3.80;77.60;;;;;;5046375;28;21025;-78
2022/01/20 09:52:11;;;;;;;80.32;52.75;;;4.00;77.70;;;;;;5038410;28;20415;-76
2022/01/20 09:54:39;;;;;;;78.00;51.70;;;4.10;77.20;;;;;;5040354;28;20465;-77
2022/01/20 09:57:06;;;;;;;72.75;48.72;;;4.30;77.40;;;;;;5065911;28;20415;-78
2022/01/20 09:59:33;;;;;;;79.77;54.03;;;4.40;76.20;;;;;;5050735;28;20416;-76
2022/01/20 10:02:00;;;;;;;76.13;52.30;;;4.50;74.90;;;;;;5045024;28;20418;-76
2022/01/20 10:04:33;;;;;;;81.75;54.72;;;4.70;75.00;;;;;;5031862;28;20737;-78
2022/01/20 10:07:03;;;;;;;81.55;56.03;;;4.90;75.10;;;;;;5056934;28;20420;-76
2022/01/20 10:09:38;;;;;;;89.47;57.03;;;5.10;74.30;;;;;;5050212;28;20464;-76
2022/01/20 10:12:07;;;;;;;76.68;53.38;;;5.20;74.40;;;;;;5058957;28;20416;-76
2022/01/20 10:14:49;;;;;;;78.63;54.10;;;5.20;73.30;;;;;;5052809;28;20468;-76
2022/01/20 10:17:19;;;;;;;77.25;53.88;;;5.10;73.60;;;;;;5051501;28;20416;-77
2022/01/20 10:19:50;;;;;;;78.97;53.72;;;5.30;75.10;;;;;;5030327;28;20448;-75
2022/01/20 10:22:24;;;;;;;80.43;54.97;;;5.40;74.80;;;;;;5023916;28;20914;-78
2022/01/20 10:25:03;;;;;;;82.28;56.03;;;5.60;74.10;;;;;;5013958;28;20483;-76
2022/01/20 10:27:45;;;;;;;78.68;54.22;;;5.90;73.20;;;;;;5009909;28;20503;-78
2022/01/20 10:30:13;;;;;;;77.10;53.47;;;6.10;72.90;;;;;;5025835;28;20477;-79
2022/01/20 10:32:43;;;;;;;89.30;54.92;;;6.20;71.50;;;;;;5027153;28;20406;-76
2022/01/20 10:35:12;;;;;;;82.60;53.33;;;6.30;71.30;;;;;;5029200;28;20414;-76
2022/01/20 10:37:41;;;;;;;91.18;57.33;;;6.30;70.30;;;;;;5028306;28;20821;-76
2022/01/20 10:40:14;;;;;;;81.60;56.45;;;6.40;69.80;;;;;;5017809;28;20422;-76
2022/01/20 10:42:44;;;;;;;86.20;57.17;;;6.50;71.30;;;;;;5027758;28;20417;-76
2022/01/20 10:45:26;;;;;;;73.15;52.55;;;6.70;69.80;;;;;;5027309;28;20468;-79
2022/01/20 10:47:57;;;;;;;77.20;53.13;;;6.90;69.10;;;;;;5028494;28;21027;-76
2022/01/20 10:50:30;;;;;;;73.75;53.15;;;7.00;68.30;;;;;;5021768;28;20476;-77
2022/01/20 10:52:57;;;;;;;72.75;51.47;;;7.00;67.30;;;;;;5015463;28;21018;-78
2022/01/20 10:55:33;;;;;;;68.95;48.90;;;7.10;67.50;;;;;;5029281;28;20498;-76
2022/01/20 10:58:12;;;;;;;66.23;46.77;;;7.30;66.50;;;;;;5017000;28;20497;-76
2022/01/20 11:00:48;;;;;;;65.72;46.30;;;7.40;66.10;;;;;;5008855;28;20420;-76
2022/01/20 11:03:16;;;;;;;69.38;47.47;;;7.50;65.20;;;;;;5023968;28;20412;-76
2022/01/20 11:05:48;;;;;;;64.47;44.40;;;7.40;63.60;;;;;;5018731;28;20898;-76
2022/01/20 11:08:16;;;;;;;62.08;43.92;;;7.40;63.40;;;;;;5029492;28;20766;-77
2022/01/20 11:10:45;;;;;;;59.42;41.33;;;7.40;63.40;;;;;;5029194;28;20418;-76
2022/01/20 11:13:13;;;;;;;56.35;40.72;;;7.60;62.80;;;;;;5015892;28;20899;-79
2022/01/20 11:15:41;;;;;;;57.50;41.38;;;7.80;62.40;;;;;;5029596;28;20407;-77
2022/01/20 11:18:09;;;;;;;54.28;39.25;;;7.90;62.00;;;;;;5018775;28;20823;-76
2022/01/20 11:20:42;;;;;;;56.45;39.65;;;8.00;60.80;;;;;;5014019;28;20442;-77
2022/01/20 11:23:09;;;;;;;56.90;41.25;;;8.20;60.60;;;;;;5021183;28;20462;-76
2022/01/20 11:25:39;;;;;;;56.40;40.50;;;8.30;59.60;;;;;;5023703;28;20528;-76
2022/01/20 11:28:12;;;;;;;58.25;39.05;;;8.40;59.40;;;;;;5015458;28;20410;-77
2022/01/20 11:30:42;;;;;;;54.47;37.38;;;8.50;57.60;;;;;;5032550;28;20845;-77
2022/01/20 11:33:12;;;;;;;54.88;37.90;;;8.30;58.00;;;;;;5007791;28;21111;-77
2022/01/20 11:35:51;;;;;;;52.25;37.28;;;8.30;57.60;;;;;;5007903;28;20424;-76
2022/01/20 11:38:20;;;;;;;49.70;35.23;;;8.50;57.80;;;;;;5020945;28;20408;-76
2022/01/20 11:41:00;;;;;;;54.65;35.17;;;8.70;57.60;;;;;;5024830;28;20422;-79
2022/01/20 11:43:38;;;;;;;48.75;34.60;;;8.90;56.40;;;;;;5022077;28;20567;-76
2022/01/20 11:46:19;;;;;;;49.33;34.70;;;9.10;55.30;;;;;;5013468;28;20909;-76
2022/01/20 11:48:55;;;;;;;47.30;33.27;;;9.20;55.20;;;;;;5029769;28;20507;-78
2022/01/20 11:51:41;;;;;;;45.80;31.85;;;9.30;53.60;;;;;;5017436;28;20421;-76
2022/01/20 11:54:34;;;;;;;48.05;32.67;;;9.40;53.60;;;;;;5032472;28;20410;-79
2022/01/20 11:57:24;;;;;;;42.95;30.27;;;9.60;53.20;;;;;;5033606;28;20468;-77
2022/01/20 12:00:01;;;;;;;45.13;30.67;;;9.70;52.20;;;;;;5023398;28;20406;-79
2022/01/20 12:02:38;;;;;;;48.78;32.35;;;9.80;52.50;;;;;;5032888;28;20413;-77
2022/01/20 12:05:30;;;;;;;50.92;32.90;;;9.90;51.80;;;;;;5026302;28;20443;-76
2022/01/20 12:08:20;;;;;;;48.13;32.05;;;10.00;51.90;;;;;;5030561;28;20508;-77
2022/01/20 12:10:59;;;;;;;46.17;31.37;;;10.10;51.50;;;;;;5028147;28;20424;-76
2022/01/20 12:13:26;;;;;;;47.42;31.10;;;10.20;51.60;;;;;;5029887;28;20894;-76
2022/01/20 12:15:57;;;;;;;46.42;31.50;;;10.30;51.60;;;;;;5021265;28;20404;-79
2022/01/20 12:18:25;;;;;;;45.65;30.30;;;10.50;50.50;;;;;;5015191;28;20476;-78
2022/01/20 12:20:53;;;;;;;53.93;29.90;;;10.60;50.00;;;;;;5011312;28;20415;-76
2022/01/20 12:23:20;;;;;;;46.10;29.73;;;10.70;49.70;;;;;;5028366;28;20435;-76
2022/01/20 12:25:47;;;;;;;45.10;29.25;;;10.70;49.40;;;;;;5027196;28;20423;-76
2022/01/20 12:28:16;;;;;;;40.65;26.83;;;10.80;49.00;;;;;;5023273;28;20937;-76
2022/01/20 12:30:50;;;;;;;41.10;24.57;;;11.00;48.60;;;;;;5031633;28;20433;-76
2022/01/20 12:33:22;;;;;;;37.93;23.63;;;11.10;46.80;;;;;;5023724;28;20514;-78
2022/01/20 12:35:52;;;;;;;38.60;23.27;;;11.00;45.90;;;;;;5024726;28;20513;-77
2022/01/20 12:38:22;;;;;;;38.08;24.17;;;10.90;44.80;;;;;;5011977;28;20434;-79
2022/01/20 12:41:00;;;;;;;38.08;22.98;;;10.90;45.60;;;;;;5022616;28;20782;-77
2022/01/20 12:43:37;;;;;;;39.50;24.23;;;11.00;45.60;;;;;;5028526;28;20479;-79
2022/01/20 12:46:05;;;;;;;40.70;23.42;;;10.80;45.40;;;;;;5011404;28;20412;-77
2022/01/20 12:48:33;;;;;;;41.47;25.60;;;11.00;45.90;;;;;;5030207;28;20906;-75
2022/01/20 12:51:06;;;;;;;36.90;24.13;;;11.20;46.00;;;;;;5030774;28;20416;-80
2022/01/20 12:53:40;;;;;;;37.85;24.08;;;11.40;45.40;;;;;;5031614;28;20918;-81
2022/01/20 12:56:12;;;;;;;41.17;25.67;;;11.60;45.40;;;;;;5005438;28;20407;-76
2022/01/20 12:58:58;;;;;;;37.63;24.27;;;11.70;44.80;;;;;;5001316;28;20476;-76
2022/01/20 13:01:24;;;;;;;43.83;26.52;;;11.80;44.80;;;;;;5013171;28;20426;-77
2022/01/20 13:03:52;;;;;;;44.28;27.38;;;11.90;44.00;;;;;;5014513;28;20428;-77
2022/01/20 13:06:26;;;;;;;43.47;27.13;;;11.80;44.20;;;;;;5018088;28;20479;-76
2022/01/20 13:09:04;;;;;;;41.28;25.75;;;11.80;44.50;;;;;;5017309;28;20424;-75
2022/01/20 13:11:53;;;;;;;42.63;25.52;;;11.80;44.20;;;;;;5019671;28;20408;-76
2022/01/20 13:14:31;;;;;;;41.38;24.95;;;11.80;44.00;;;;;;5024606;28;20477;-77
2022/01/20 13:16:59;;;;;;;42.45;27.02;;;11.70;43.90;;;;;;5024299;28;21076;-77
2022/01/20 13:19:39;;;;;;;42.03;26.23;;;11.70;44.20;;;;;;5023444;28;20954;-80
2022/01/20 13:22:29;;;;;;;38.70;25.02;;;11.60;44.10;;;;;;5062212;28;20991;-76
2022/01/20 13:25:14;;;;;;;60.85;29.08;;;11.80;44.40;;;;;;5034494;28;20416;-78
2022/01/20 13:28:11;;;;;;;41.45;26.92;;;11.90;44.20;;;;;;5050247;28;21005;-77
2022/01/20 13:30:50;;;;;;;44.92;29.15;;;12.00;44.80;;;;;;5045533;28;20403;-77
2022/01/20 13:33:21;;;;;;;39.67;26.33;;;12.00;43.30;;;;;;5029527;28;20414;-77
2022/01/20 13:36:03;;;;;;;41.73;26.53;;;12.10;44.40;;;;;;5039797;28;20412;-77
2022/01/20 13:38:38;;;;;;;39.72;26.35;;;12.20;44.00;;;;;;5043956;28;20418;-77
2022/01/20 13:41:13;;;;;;;42.47;27.13;;;12.30;43.50;;;;;;5038903;28;20488;-80
2022/01/20 13:46:33;;;;;;;45.22;29.55;;;12.40;43.00;;;;;;5053291;28;20416;-77
2022/01/20 13:49:19;;;;;;;43.40;28.13;;;12.40;43.40;;;;;;5019379;28;20414;-80
2022/01/20 13:51:56;;;;;;;41.42;26.30;;;12.30;43.50;;;;;;5023990;28;20413;-76
2022/01/20 13:54:34;;;;;;;42.63;29.17;;;12.30;42.90;;;;;;5033552;28;20422;-77
2022/01/20 13:57:01;;;;;;;41.88;26.92;;;12.20;43.10;;;;;;5032102;28;20828;-77
2022/01/20 13:59:28;;;;;;;39.47;25.80;;;12.10;42.60;;;;;;5028903;28;20415;-77